createdAt,value
2017-12-04T00:02:04.906Z,83.42
2017-12-04T00:04:30.738Z,83.87
2017-12-04T00:06:56.541Z,83.35
2017-12-04T00:09:22.384Z,83.97
2017-12-04T00:11:49.010Z,83.79
2017-12-04T00:14:14.853Z,83.70
2017-12-04T00:16:43.767Z,83.94
2017-12-04T00:19:09.615Z,84.44
2017-12-04T00:21:39.101Z,84.61
2017-12-04T00:24:04.920Z,84.07
2017-12-04T00:26:34.642Z,84.33
2017-12-04T00:29:00.469Z,84.09
2017-12-04T00:31:28.318Z,83.49
2017-12-04T00:33:54.122Z,83.34
2017-12-04T00:36:23.553Z,83.37
2017-12-04T00:38:49.352Z,83.53
2017-12-04T00:41:15.148Z,83.17
2017-12-04T00:43:40.931Z,83.37
2017-12-04T00:46:06.758Z,83.58
2017-12-04T00:48:36.162Z,83.79
2017-12-04T00:51:02.017Z,84.20
2017-12-04T00:53:30.952Z,84.66
2017-12-04T00:55:56.748Z,84.98
2017-12-04T00:58:23.934Z,85.67
2017-12-04T01:00:49.729Z,85.87
2017-12-04T01:03:22.322Z,85.88
2017-12-04T01:05:48.129Z,86.03
2017-12-04T01:08:14.002Z,86.04
2017-12-04T01:10:39.832Z,86.23
2017-12-04T01:13:09.370Z,86.04
2017-12-04T01:15:35.172Z,85.77
2017-12-04T01:18:00.995Z,85.56
2017-12-04T01:20:26.843Z,85.62
2017-12-04T01:22:52.622Z,85.69
2017-12-04T01:25:19.669Z,85.55
2017-12-04T01:27:45.471Z,85.46
2017-12-04T01:30:14.814Z,85.17
2017-12-04T01:32:40.625Z,85.12
2017-12-04T01:35:09.769Z,85.06
2017-12-04T01:37:35.591Z,84.48
2017-12-04T01:40:05.391Z,84.43
2017-12-04T01:42:31.175Z,84.87
2017-12-04T01:44:58.602Z,85.09
2017-12-04T01:47:24.401Z,85.38
2017-12-04T01:49:53.561Z,85.34
2017-12-04T01:52:19.371Z,85.01
2017-12-04T01:54:45.181Z,85.12
2017-12-04T01:57:11.031Z,85.72
2017-12-04T01:59:36.808Z,85.96
2017-12-04T02:02:06.627Z,85.84
2017-12-04T02:04:32.458Z,86.04
2017-12-04T02:07:01.305Z,85.90
2017-12-04T02:09:27.129Z,85.47
2017-12-04T02:11:56.194Z,85.45
2017-12-04T02:14:21.992Z,85.66
2017-12-04T02:16:51.066Z,85.49
2017-12-04T02:19:16.865Z,85.32
2017-12-04T02:21:45.686Z,85.48
2017-12-04T02:24:11.526Z,85.64
2017-12-04T02:26:38.706Z,85.77
2017-12-04T02:29:04.509Z,85.48
2017-12-04T02:31:30.344Z,85.25
2017-12-04T02:33:56.180Z,85.00
2017-12-04T02:36:22.021Z,84.84
2017-12-04T02:38:50.818Z,85.06
2017-12-04T02:41:16.693Z,85.07
2017-12-04T02:43:45.022Z,85.64
2017-12-04T02:46:10.842Z,85.84
2017-12-04T02:48:39.457Z,85.80
2017-12-04T02:51:05.248Z,85.88
2017-12-04T02:56:01.935Z,86.63
2017-12-04T02:58:30.770Z,87.03
2017-12-04T03:00:56.595Z,86.85
2017-12-04T03:03:23.990Z,87.21
2017-12-04T03:05:49.796Z,87.24
2017-12-04T03:08:15.568Z,87.70
2017-12-04T03:10:41.378Z,88.32
2017-12-04T03:13:07.209Z,88.87
2017-12-04T03:15:36.618Z,89.15
2017-12-04T03:18:02.429Z,89.01
2017-12-04T03:20:30.439Z,88.76
2017-12-04T03:22:56.292Z,88.34
2017-12-04T03:25:25.688Z,88.82
2017-12-04T03:27:51.497Z,88.58
2017-12-04T03:30:21.220Z,88.52
2017-12-04T03:32:47.054Z,88.52
2017-12-04T03:35:16.126Z,88.35
2017-12-04T03:37:41.996Z,88.33
2017-12-04T03:40:10.903Z,88.58
2017-12-04T03:42:36.732Z,88.80
2017-12-04T03:45:02.651Z,88.89
2017-12-04T03:47:28.432Z,88.87
2017-12-04T03:49:54.221Z,88.58
2017-12-04T03:52:21.218Z,88.23
2017-12-04T03:54:47.029Z,88.07
2017-12-04T03:57:16.198Z,87.99
2017-12-04T03:59:42.100Z,87.69
2017-12-04T04:02:10.169Z,87.43
2017-12-04T04:04:36.014Z,87.33
2017-12-04T04:09:32.645Z,87.72
2017-12-04T04:12:00.247Z,87.66
2017-12-04T04:14:26.055Z,87.74
2017-12-04T04:16:55.044Z,87.67
2017-12-04T04:19:20.857Z,87.26
2017-12-04T04:21:46.652Z,87.12
2017-12-04T04:24:12.471Z,87.42
2017-12-04T04:26:38.256Z,87.94
2017-12-04T04:29:07.724Z,88.58
2017-12-04T04:31:33.551Z,88.63
2017-12-04T04:34:02.755Z,88.44
2017-12-04T04:36:28.634Z,88.75
2017-12-04T04:38:56.333Z,88.66
2017-12-04T04:41:22.196Z,88.84
2017-12-04T04:43:51.138Z,88.70
2017-12-04T04:46:17.045Z,88.70
2017-12-04T04:48:46.056Z,88.90
2017-12-04T04:51:11.976Z,88.90
2017-12-04T04:53:40.280Z,88.98
2017-12-04T04:56:06.113Z,88.88
2017-12-04T04:58:31.953Z,88.75
2017-12-04T05:00:57.729Z,88.43
2017-12-04T05:03:23.566Z,88.23
2017-12-04T05:05:53.289Z,88.01
2017-12-04T05:08:19.088Z,87.76
2017-12-04T05:10:46.403Z,87.71
2017-12-04T05:13:12.232Z,87.69
2017-12-04T05:15:41.507Z,87.86
2017-12-04T05:18:07.374Z,87.60
2017-12-04T05:20:37.001Z,87.82
2017-12-04T05:23:02.846Z,88.46
2017-12-04T05:25:31.885Z,88.50
2017-12-04T05:27:57.732Z,88.26
2017-12-04T05:30:25.383Z,88.65
2017-12-04T05:32:52.274Z,88.64
2017-12-04T05:35:18.143Z,88.60
2017-12-04T05:37:43.954Z,88.81
2017-12-04T05:40:09.823Z,89.00
2017-12-04T05:42:36.934Z,88.95
2017-12-04T05:45:02.814Z,88.67
2017-12-04T05:47:32.478Z,88.59
2017-12-04T05:49:58.270Z,88.79
2017-12-04T05:52:26.407Z,88.50
2017-12-04T05:54:52.215Z,88.85
2017-12-04T05:57:21.586Z,89.11
2017-12-04T05:59:47.423Z,89.48
2017-12-04T06:02:16.384Z,89.94
2017-12-04T06:04:42.154Z,90.25
2017-12-04T06:07:11.916Z,90.48
2017-12-04T06:09:37.786Z,90.58
2017-12-04T06:12:03.550Z,90.67
2017-12-04T06:14:29.382Z,90.47
2017-12-04T06:16:55.219Z,90.72
2017-12-04T06:19:22.534Z,90.55
2017-12-04T06:21:48.321Z,90.51
2017-12-04T06:24:17.697Z,90.35
2017-12-04T06:26:43.565Z,90.41
2017-12-04T06:29:13.215Z,90.81
2017-12-04T06:31:39.035Z,91.03
2017-12-04T06:34:06.268Z,90.96
2017-12-04T06:36:32.077Z,90.85
2017-12-04T06:39:01.252Z,90.72
2017-12-04T06:41:27.096Z,90.99
2017-12-04T06:43:56.136Z,91.09
2017-12-04T06:46:21.943Z,91.32
2017-12-04T06:48:47.771Z,91.60
2017-12-04T06:51:13.609Z,91.64
2017-12-04T06:53:39.436Z,91.76
2017-12-04T06:56:09.092Z,91.96
2017-12-04T06:58:34.914Z,92.02
2017-12-04T07:01:03.618Z,91.93
2017-12-04T07:03:29.445Z,92.02
2017-12-04T07:05:57.096Z,91.95
2017-12-04T07:08:22.908Z,91.97
2017-12-04T07:10:51.386Z,91.80
2017-12-04T07:13:17.179Z,91.90
2017-12-04T07:18:13.996Z,91.61
2017-12-04T07:20:41.201Z,91.60
2017-12-04T07:23:06.975Z,91.51
2017-12-04T07:25:32.819Z,91.23
2017-12-04T07:27:58.637Z,91.13
2017-12-04T07:30:24.458Z,91.23
2017-12-04T07:32:53.672Z,91.34
2017-12-04T07:35:19.468Z,90.92
2017-12-04T07:37:47.593Z,90.77
2017-12-04T07:40:13.383Z,90.67
2017-12-04T07:42:42.486Z,90.06
2017-12-04T07:45:08.295Z,89.84
2017-12-04T07:47:37.397Z,89.97
2017-12-04T07:50:03.198Z,89.92
2017-12-04T07:52:32.207Z,90.11
2017-12-04T07:54:58.060Z,90.13
2017-12-04T07:57:27.209Z,90.29
2017-12-04T07:59:53.042Z,90.02
2017-12-04T08:02:18.893Z,89.87
2017-12-04T08:04:44.767Z,89.85
2017-12-04T08:07:10.559Z,89.84
2017-12-04T08:09:38.071Z,89.49
2017-12-04T08:12:03.910Z,89.17
2017-12-04T08:14:33.207Z,89.24
2017-12-04T08:16:59.081Z,89.19
2017-12-04T08:19:28.230Z,89.34
2017-12-04T08:21:54.046Z,89.30
2017-12-04T08:24:23.840Z,89.36
2017-12-04T08:26:49.680Z,89.44
2017-12-04T08:29:17.229Z,89.49
2017-12-04T08:31:43.038Z,89.25
2017-12-04T08:34:12.658Z,89.50
2017-12-04T08:36:38.490Z,89.67
2017-12-04T08:39:04.315Z,89.93
2017-12-04T08:41:30.134Z,90.11
2017-12-04T08:43:55.917Z,90.02
2017-12-04T08:46:23.349Z,89.95
2017-12-04T08:48:49.131Z,89.80
2017-12-04T08:51:18.364Z,89.56
2017-12-04T08:53:44.241Z,89.30
2017-12-04T08:56:13.624Z,89.37
2017-12-04T08:58:39.534Z,89.26
2017-12-04T09:01:08.398Z,89.50
2017-12-04T09:03:34.212Z,89.52
2017-12-04T09:06:03.510Z,89.41
2017-12-04T09:08:29.318Z,89.50
2017-12-04T09:10:57.016Z,89.70
2017-12-04T09:13:22.847Z,89.59
2017-12-04T09:15:48.665Z,89.41
2017-12-04T09:18:14.479Z,89.37
2017-12-04T09:20:40.444Z,89.18
2017-12-04T09:23:10.097Z,89.20
2017-12-04T09:25:35.926Z,89.26
2017-12-04T09:28:05.261Z,89.36
2017-12-04T09:30:31.105Z,89.26
2017-12-04T09:32:58.800Z,89.51
2017-12-04T09:35:24.608Z,89.47
2017-12-04T09:37:53.812Z,89.42
2017-12-04T09:40:19.607Z,89.55
2017-12-04T09:42:48.538Z,89.44
2017-12-04T09:45:14.370Z,89.00
2017-12-04T09:47:43.475Z,88.74
2017-12-04T09:50:09.354Z,88.52
2017-12-04T09:52:35.119Z,88.48
2017-12-04T09:55:00.961Z,88.43
2017-12-04T09:57:26.786Z,88.58
2017-12-04T09:59:54.031Z,88.66
2017-12-04T10:02:19.845Z,88.34
2017-12-04T10:04:48.893Z,87.77
2017-12-04T10:07:14.710Z,87.42
2017-12-04T10:09:44.443Z,87.21
2017-12-04T10:12:10.249Z,87.14
2017-12-04T10:14:39.985Z,87.54
2017-12-04T10:17:05.819Z,87.26
2017-12-04T10:19:33.489Z,87.32
2017-12-04T10:21:59.482Z,87.66
2017-12-04T10:24:29.287Z,87.59
2017-12-04T10:26:55.137Z,87.33
2017-12-04T10:29:20.985Z,87.41
2017-12-04T10:31:46.775Z,86.86
2017-12-04T10:34:12.644Z,87.30
2017-12-04T10:36:39.376Z,87.48
2017-12-04T10:39:05.185Z,87.23
2017-12-04T10:41:34.862Z,87.43
2017-12-04T10:44:00.693Z,87.32
2017-12-04T10:46:30.139Z,87.25
2017-12-04T10:48:55.921Z,87.29
2017-12-04T10:51:25.070Z,87.47
2017-12-04T10:53:50.922Z,87.31
2017-12-04T10:56:19.963Z,87.35
2017-12-04T10:58:45.783Z,87.29
2017-12-04T11:01:12.930Z,87.04
2017-12-04T11:03:38.771Z,86.82
2017-12-04T11:06:04.559Z,87.38
2017-12-04T11:08:30.345Z,87.16
2017-12-04T11:10:56.141Z,87.03
2017-12-04T11:13:25.463Z,87.22
2017-12-04T11:15:51.269Z,87.26
2017-12-04T11:18:20.967Z,87.55
2017-12-04T11:20:46.814Z,87.43
2017-12-04T11:23:14.664Z,87.62
2017-12-04T11:25:40.492Z,87.82
2017-12-04T11:28:10.371Z,88.24
2017-12-04T11:30:36.223Z,88.30
2017-12-04T11:33:03.835Z,88.13
2017-12-04T11:35:29.684Z,88.10
2017-12-04T11:37:58.644Z,88.34
2017-12-04T11:40:24.492Z,88.52
2017-12-04T11:42:50.334Z,88.18
2017-12-04T11:45:16.154Z,87.76
2017-12-04T11:47:41.992Z,87.81
2017-12-04T11:50:11.807Z,87.29
2017-12-04T11:52:37.688Z,87.02
2017-12-04T11:55:05.467Z,86.85
2017-12-04T11:57:31.267Z,86.87
2017-12-04T12:00:00.402Z,87.10
2017-12-04T12:02:26.195Z,86.64
2017-12-04T12:04:55.829Z,86.65
2017-12-04T12:07:21.648Z,86.56
2017-12-04T12:09:50.709Z,86.15
2017-12-04T12:12:16.608Z,86.28
2017-12-04T12:14:45.412Z,86.42
2017-12-04T12:17:11.338Z,86.24
2017-12-04T12:19:37.241Z,86.49
2017-12-04T12:22:03.058Z,86.81
2017-12-04T12:24:28.903Z,86.21
2017-12-04T12:26:55.547Z,86.42
2017-12-04T12:29:21.364Z,86.43
2017-12-04T12:31:49.805Z,87.06
2017-12-04T12:34:15.641Z,87.33
2017-12-04T12:36:45.092Z,87.50
2017-12-04T12:39:10.912Z,87.65
2017-12-04T12:41:39.380Z,87.45
2017-12-04T12:44:05.187Z,87.42
2017-12-04T12:46:34.339Z,87.29
2017-12-04T12:49:00.154Z,87.34
2017-12-04T12:51:29.513Z,87.56
2017-12-04T12:53:55.333Z,87.78
2017-12-04T12:56:21.272Z,87.59
2017-12-04T12:58:47.077Z,87.91
2017-12-04T13:01:12.885Z,88.15
2017-12-04T13:03:41.896Z,88.35
2017-12-04T13:06:07.712Z,88.35
2017-12-04T13:08:36.912Z,88.33
2017-12-04T13:11:02.697Z,88.33
2017-12-04T13:13:31.622Z,88.71
2017-12-04T13:15:57.453Z,88.42
2017-12-04T13:18:26.625Z,88.65
2017-12-04T13:20:52.418Z,88.65
2017-12-04T13:23:21.363Z,88.41
2017-12-04T13:25:47.218Z,88.62
2017-12-04T13:28:14.921Z,88.66
2017-12-04T13:30:40.788Z,88.64
2017-12-04T13:36:21.074Z,88.36
2017-12-04T13:38:46.892Z,88.76
2017-12-04T13:41:12.685Z,88.82
2017-12-04T13:43:38.494Z,88.91
2017-12-04T13:46:04.331Z,88.85
2017-12-04T13:48:30.172Z,88.96
2017-12-04T13:50:56.035Z,89.11
2017-12-04T13:53:21.858Z,89.39
2017-12-04T13:55:47.655Z,88.98
2017-12-04T13:58:13.477Z,89.17
2017-12-04T14:00:39.345Z,89.51
2017-12-04T14:03:05.177Z,89.15
2017-12-04T14:05:30.970Z,89.34
2017-12-04T14:07:56.783Z,89.28
2017-12-04T14:10:22.590Z,89.02
2017-12-04T14:12:48.413Z,88.81
2017-12-04T14:15:14.235Z,88.61
2017-12-04T14:17:40.123Z,88.84
2017-12-04T14:20:05.946Z,89.22
2017-12-04T14:22:31.800Z,89.45
2017-12-04T14:24:57.698Z,89.64
2017-12-04T14:27:23.517Z,89.30
2017-12-04T14:29:49.312Z,89.77
2017-12-04T14:32:15.131Z,89.97
2017-12-04T14:34:41.175Z,90.01
2017-12-04T14:37:07.018Z,90.08
2017-12-04T14:39:32.889Z,90.09
2017-12-04T14:41:58.655Z,90.17
2017-12-04T14:44:24.474Z,90.28
2017-12-04T14:46:50.273Z,90.67
2017-12-04T14:49:16.117Z,90.60
2017-12-04T14:51:41.921Z,90.66
2017-12-04T14:54:07.731Z,90.58
2017-12-04T14:56:33.612Z,90.80
2017-12-04T14:58:59.488Z,90.45
2017-12-04T15:01:25.292Z,90.73
2017-12-04T15:03:51.070Z,90.89
2017-12-04T15:06:16.891Z,90.62
2017-12-04T15:08:42.771Z,90.79
2017-12-04T15:11:08.574Z,91.10
2017-12-04T15:13:35.968Z,91.14
2017-12-04T15:16:01.834Z,91.36
2017-12-04T15:18:31.145Z,91.02
2017-12-04T15:20:56.972Z,91.31
2017-12-04T15:23:22.793Z,91.28
2017-12-04T15:25:48.639Z,91.50
2017-12-04T15:28:14.584Z,91.64
2017-12-04T15:30:43.648Z,91.84
2017-12-04T15:33:09.942Z,92.02
2017-12-04T15:35:36.674Z,92.05
2017-12-04T15:38:02.487Z,92.19
2017-12-04T15:40:32.162Z,92.31
2017-12-04T15:42:58.032Z,92.51
2017-12-04T15:45:26.015Z,92.79
2017-12-04T15:47:51.795Z,92.67
2017-12-04T15:50:21.234Z,92.65
2017-12-04T15:52:47.062Z,92.77
2017-12-04T15:55:16.020Z,92.74
2017-12-04T15:57:41.831Z,92.58
2017-12-04T16:00:07.642Z,92.45
2017-12-04T16:02:33.455Z,92.30
2017-12-04T16:04:59.305Z,92.19
2017-12-04T16:07:27.290Z,92.14
2017-12-04T16:09:53.190Z,91.94
2017-12-04T16:12:21.883Z,91.73
2017-12-04T16:14:47.696Z,91.68
2017-12-04T16:17:16.382Z,91.71
2017-12-04T16:19:42.214Z,91.36
2017-12-04T16:22:11.692Z,91.39
2017-12-04T16:24:37.509Z,91.36
2017-12-04T16:27:06.639Z,91.19
2017-12-04T16:29:32.483Z,91.20
2017-12-04T16:32:01.712Z,90.98
2017-12-04T16:34:27.511Z,90.75
2017-12-04T16:36:53.408Z,90.79
2017-12-04T16:39:19.258Z,90.86
2017-12-04T16:41:45.127Z,90.83
2017-12-04T16:44:14.108Z,90.87
2017-12-04T16:46:39.930Z,90.96
2017-12-04T16:49:08.976Z,91.01
2017-12-04T16:51:34.856Z,91.21
2017-12-04T16:54:02.158Z,91.29
2017-12-04T16:56:27.962Z,91.39
2017-12-04T16:58:57.139Z,91.71
2017-12-04T17:01:23.024Z,91.33
2017-12-04T17:03:52.857Z,91.07
2017-12-04T17:06:18.748Z,90.87
2017-12-04T17:08:46.209Z,90.88
2017-12-04T17:11:12.050Z,90.70
2017-12-04T17:13:37.880Z,90.67
2017-12-04T17:16:03.681Z,90.42
2017-12-04T17:18:29.503Z,90.28
2017-12-04T17:20:58.473Z,90.20
2017-12-04T17:23:24.329Z,89.97
2017-12-04T17:25:53.270Z,89.72
2017-12-04T17:28:19.076Z,89.62
2017-12-04T17:30:47.196Z,89.59
2017-12-04T17:33:13.041Z,89.63
2017-12-04T17:35:42.515Z,89.56
2017-12-04T17:38:08.366Z,89.48
2017-12-04T17:40:37.533Z,89.42
2017-12-04T17:43:03.370Z,89.19
2017-12-04T17:45:32.958Z,88.86
2017-12-04T17:47:58.781Z,88.94
2017-12-04T17:50:24.630Z,88.91
2017-12-04T17:52:50.432Z,88.99
2017-12-04T17:55:16.344Z,88.77
2017-12-04T17:57:43.784Z,88.79
2017-12-04T18:00:09.670Z,88.59
2017-12-04T18:02:39.076Z,88.55
2017-12-04T18:05:04.899Z,88.19
2017-12-04T18:07:34.458Z,87.84
2017-12-04T18:10:00.272Z,87.78
2017-12-04T18:12:27.654Z,87.60
2017-12-04T18:14:53.462Z,88.10
2017-12-04T18:17:22.831Z,88.32
2017-12-04T18:19:48.651Z,88.53
2017-12-04T18:22:17.599Z,88.61
2017-12-04T18:24:43.508Z,88.87
2017-12-04T18:27:09.267Z,88.77
2017-12-04T18:29:35.134Z,88.91
2017-12-04T18:32:00.961Z,89.09
2017-12-04T18:34:28.533Z,89.31
2017-12-04T18:36:54.396Z,89.58
2017-12-04T18:39:23.681Z,89.97
2017-12-04T18:41:49.583Z,90.03
2017-12-04T18:44:19.021Z,89.96
2017-12-04T18:46:44.885Z,89.86
2017-12-04T18:49:13.954Z,90.01
2017-12-04T18:51:39.761Z,89.95
2017-12-04T18:54:09.044Z,90.06
2017-12-04T18:56:34.866Z,90.16
2017-12-04T18:59:02.619Z,90.07
2017-12-04T19:01:28.509Z,90.20
2017-12-04T19:03:54.381Z,90.43
2017-12-04T19:06:20.187Z,90.55
2017-12-04T19:08:46.036Z,90.71
2017-12-04T19:11:15.412Z,90.85
2017-12-04T19:13:41.237Z,90.67
2017-12-04T19:16:08.443Z,90.88
2017-12-04T19:18:34.302Z,90.82
2017-12-04T19:21:03.621Z,90.57
2017-12-04T19:23:29.463Z,90.50
2017-12-04T19:25:57.681Z,90.65
2017-12-04T19:28:23.541Z,90.44
2017-12-04T19:30:52.370Z,90.57
2017-12-04T19:33:18.218Z,90.52
2017-12-04T19:35:47.124Z,90.57
2017-12-04T19:38:12.991Z,90.54
2017-12-04T19:40:38.849Z,90.75
2017-12-04T19:43:04.717Z,90.77
2017-12-04T19:45:30.535Z,90.58
2017-12-04T19:47:59.495Z,90.28
2017-12-04T19:50:25.377Z,90.09
2017-12-04T19:52:53.533Z,90.16
2017-12-04T19:55:19.380Z,89.60
2017-12-04T19:57:52.068Z,89.83
2017-12-04T20:00:19.818Z,89.54
2017-12-04T20:02:45.683Z,89.59
2017-12-04T20:05:11.487Z,89.25
2017-12-04T20:07:38.196Z,89.02
2017-12-04T20:10:04.068Z,89.10
2017-12-04T20:12:33.090Z,88.90
2017-12-04T20:14:59.262Z,88.95
2017-12-04T20:17:25.085Z,88.82
2017-12-04T20:19:50.948Z,88.61
2017-12-04T20:22:16.807Z,88.72
2017-12-04T20:24:44.661Z,88.89
2017-12-04T20:27:10.552Z,88.71
2017-12-04T20:29:39.812Z,88.82
2017-12-04T20:32:05.613Z,88.59
2017-12-04T20:34:33.761Z,88.64
2017-12-04T20:36:59.668Z,88.53
2017-12-04T20:39:28.324Z,88.55
2017-12-04T20:41:54.157Z,88.66
2017-12-04T20:44:23.538Z,88.80
2017-12-04T20:46:49.452Z,88.83
2017-12-04T20:49:18.932Z,89.06
2017-12-04T20:51:44.728Z,89.27
2017-12-04T20:54:10.531Z,89.21
2017-12-04T20:56:36.370Z,89.26
2017-12-04T20:59:02.187Z,89.10
2017-12-04T21:01:31.093Z,89.31
2017-12-04T21:03:56.939Z,89.13
2017-12-04T21:06:25.953Z,89.14
2017-12-04T21:09:04.135Z,89.30
2017-12-04T21:11:53.028Z,88.97
2017-12-04T21:14:31.154Z,89.03
2017-12-04T21:17:09.531Z,88.77
2017-12-04T21:19:35.342Z,89.08
2017-12-04T21:22:01.185Z,88.98
2017-12-04T21:24:27.091Z,89.11
2017-12-04T21:26:52.904Z,88.88
2017-12-04T21:29:18.752Z,88.84
2017-12-04T21:31:44.593Z,88.88
2017-12-04T21:34:10.424Z,88.95
2017-12-04T21:36:36.265Z,89.13
2017-12-04T21:39:02.137Z,89.07
2017-12-04T21:41:27.979Z,89.09
2017-12-04T21:43:53.808Z,89.17
2017-12-04T21:46:19.631Z,89.10
2017-12-04T21:48:45.484Z,88.98
2017-12-04T21:51:11.311Z,88.76
2017-12-04T21:53:37.198Z,88.47
2017-12-04T21:56:03.045Z,88.36
2017-12-04T21:58:28.851Z,88.25
2017-12-04T22:00:54.685Z,88.22
2017-12-04T22:03:20.493Z,88.15
2017-12-04T22:05:46.276Z,87.87
2017-12-04T22:08:12.069Z,87.62
2017-12-04T22:10:37.875Z,87.03
2017-12-04T22:13:03.673Z,87.03
2017-12-04T22:15:29.506Z,87.24
2017-12-04T22:17:55.336Z,87.46
2017-12-04T22:20:21.128Z,87.32
2017-12-04T22:22:46.916Z,87.25
2017-12-04T22:25:12.752Z,86.98
2017-12-04T22:27:38.558Z,86.90
2017-12-04T22:30:04.381Z,86.74
2017-12-04T22:32:30.214Z,86.38
2017-12-04T22:34:55.972Z,85.87
2017-12-04T22:37:21.753Z,85.69
2017-12-04T22:39:47.571Z,85.62
2017-12-04T22:42:13.398Z,85.59
2017-12-04T22:44:39.201Z,85.04
2017-12-04T22:47:04.996Z,85.50
2017-12-04T22:49:30.809Z,85.17
2017-12-04T22:51:56.615Z,85.08
2017-12-04T22:54:22.451Z,84.98
2017-12-04T22:56:48.270Z,84.97
2017-12-04T22:59:14.077Z,84.92
2017-12-04T23:01:39.911Z,85.15
2017-12-04T23:04:05.712Z,85.03
2017-12-04T23:06:31.499Z,84.11
2017-12-04T23:08:57.276Z,84.30
2017-12-04T23:11:24.267Z,84.75
2017-12-04T23:13:50.122Z,84.60
2017-12-04T23:16:18.759Z,84.79
2017-12-04T23:18:44.613Z,85.06
2017-12-04T23:21:10.457Z,85.05
2017-12-04T23:23:36.268Z,84.95
2017-12-04T23:26:02.052Z,84.48
2017-12-04T23:28:31.240Z,84.38
2017-12-04T23:30:57.065Z,84.23
2017-12-04T23:33:26.383Z,83.37
2017-12-04T23:35:52.218Z,83.27
2017-12-04T23:38:21.399Z,83.48
2017-12-04T23:40:47.200Z,83.44
2017-12-04T23:43:15.560Z,83.16
2017-12-04T23:45:41.371Z,82.80
2017-12-04T23:48:10.849Z,83.15
2017-12-04T23:50:36.635Z,82.62
2017-12-04T23:53:04.273Z,82.76
2017-12-04T23:55:30.064Z,82.39
2017-12-04T23:57:55.881Z,82.80
